TAF KBFF
AMD KBFF 090708Z 0907/1006 27022G40KT P6SM OVC150 WS020/28050KT FM091100 32010KT P6SM SCT250 FM091700 01007KT P6SM BKN050 FM092200 07008KT 6SM -SN OVC025 FM100200 09010KT 2SM -SN OVC010=
METAR KBFF
WC KBFF
WS KBFF
WV KBFF